createdAt,value
2022-11-19T00:01:22.757Z,11.23
2022-11-19T00:03:52.627Z,10.90
2022-11-19T00:06:20.702Z,11.57
2022-11-19T00:08:47.004Z,8.70
2022-11-19T00:11:39.005Z,8.23
2022-11-19T00:14:05.313Z,10.60
2022-11-19T00:16:31.558Z,9.93
2022-11-19T00:18:57.808Z,8.45
2022-11-19T00:21:24.013Z,7.97
2022-11-19T00:23:52.915Z,9.05
2022-11-19T00:26:19.134Z,9.20
2022-11-19T00:28:45.331Z,9.85
2022-11-19T00:31:12.631Z,8.45
2022-11-19T00:33:39.927Z,9.18
2022-11-19T00:36:07.420Z,10.57
2022-11-19T00:38:34.017Z,9.20
2022-11-19T00:41:00.360Z,11.10
2022-11-19T00:43:45.397Z,9.63
2022-11-19T00:46:11.852Z,9.13
2022-11-19T00:48:39.160Z,10.82
2022-11-19T00:51:05.894Z,10.07
2022-11-19T00:53:32.160Z,10.82
2022-11-19T00:56:02.708Z,8.98
2022-11-19T00:58:28.934Z,10.02
2022-11-19T01:00:55.535Z,10.95
2022-11-19T01:03:22.504Z,12.98
2022-11-19T01:05:48.709Z,9.20
2022-11-19T01:08:14.934Z,11.95
2022-11-19T01:10:41.145Z,11.40
2022-11-19T01:13:26.066Z,9.57
2022-11-19T01:15:52.252Z,11.07
2022-11-19T01:18:18.468Z,11.43
2022-11-19T01:20:44.825Z,11.57
2022-11-19T01:23:11.311Z,10.65
2022-11-19T01:25:37.803Z,12.10
2022-11-19T01:28:04.271Z,13.02
2022-11-19T01:30:30.696Z,14.45
2022-11-19T01:32:56.963Z,9.70
2022-11-19T01:35:23.387Z,9.10
2022-11-19T01:37:49.600Z,8.98
2022-11-19T01:40:15.801Z,11.05
2022-11-19T01:42:51.111Z,11.02
2022-11-19T01:45:26.313Z,12.20
2022-11-19T01:47:53.542Z,11.07
2022-11-19T01:50:19.927Z,11.18
2022-11-19T01:52:46.177Z,13.18
2022-11-19T01:55:12.896Z,12.10
2022-11-19T01:57:39.681Z,12.02
2022-11-19T02:00:07.157Z,11.50
2022-11-19T02:02:33.550Z,10.95
2022-11-19T02:05:00.201Z,12.27
2022-11-19T02:07:29.275Z,12.18
2022-11-19T02:09:56.307Z,12.48
2022-11-19T02:12:40.669Z,12.82
2022-11-19T02:15:22.243Z,13.80
2022-11-19T02:17:51.510Z,13.02
2022-11-19T02:20:26.456Z,14.52
2022-11-19T02:23:10.724Z,12.65
2022-11-19T02:26:04.814Z,12.43
2022-11-19T02:28:37.119Z,11.07
2022-11-19T02:31:06.451Z,10.68
2022-11-19T02:33:42.012Z,11.93
2022-11-19T02:36:12.891Z,13.23
2022-11-19T02:38:41.563Z,13.30
2022-11-19T02:41:29.752Z,13.52
2022-11-19T02:44:18.008Z,10.55
2022-11-19T02:46:45.079Z,10.25
2022-11-19T02:49:12.207Z,10.13
2022-11-19T02:51:38.629Z,10.75
2022-11-19T02:54:04.914Z,15.10
2022-11-19T02:56:45.940Z,12.50
2022-11-19T02:59:31.187Z,11.75
2022-11-19T03:02:16.981Z,11.95
2022-11-19T03:04:43.343Z,12.35
2022-11-19T03:07:14.845Z,13.18
2022-11-19T03:12:13.016Z,12.40
2022-11-19T03:15:05.133Z,10.52
2022-11-19T03:17:36.901Z,13.15
2022-11-19T03:20:15.401Z,12.38
2022-11-19T03:23:04.949Z,11.45
2022-11-19T03:25:49.149Z,7.90
2022-11-19T03:28:18.106Z,5.93
2022-11-19T03:30:45.333Z,5.90
2022-11-19T03:33:15.137Z,5.60
2022-11-19T03:35:44.968Z,4.22
2022-11-19T03:38:14.762Z,3.92
2022-11-19T03:40:42.102Z,4.63
2022-11-19T03:43:09.507Z,3.58
2022-11-19T03:45:39.216Z,3.67
2022-11-19T03:48:05.702Z,3.53
2022-11-19T03:50:42.742Z,3.05
2022-11-19T03:53:09.060Z,2.83
2022-11-19T03:55:39.058Z,3.08
2022-11-19T03:58:06.295Z,2.50
2022-11-19T04:00:33.038Z,2.75
2022-11-19T04:02:59.257Z,2.83
2022-11-19T04:05:25.520Z,2.20
2022-11-19T04:07:51.726Z,1.85
2022-11-19T04:10:17.982Z,2.10
2022-11-19T04:12:44.206Z,2.05
2022-11-19T04:15:14.214Z,1.80
2022-11-19T04:17:40.570Z,1.95
2022-11-19T04:20:07.873Z,1.60
2022-11-19T04:22:34.128Z,1.50
2022-11-19T04:25:00.402Z,1.83
2022-11-19T04:27:26.799Z,1.63
2022-11-19T04:29:53.019Z,1.50
2022-11-19T04:32:19.198Z,1.30
2022-11-19T04:34:45.487Z,1.40
2022-11-19T04:37:11.671Z,1.50
2022-11-19T04:39:37.875Z,2.28
2022-11-19T04:42:04.149Z,2.03
2022-11-19T04:44:30.632Z,2.25
2022-11-19T04:46:56.823Z,1.50
2022-11-19T04:49:23.030Z,1.85
2022-11-19T04:51:49.233Z,1.67
2022-11-19T04:54:15.426Z,1.63
2022-11-19T04:56:41.769Z,2.55
2022-11-19T04:59:08.096Z,1.58
2022-11-19T05:01:34.341Z,2.90
2022-11-19T05:04:00.594Z,2.45
2022-11-19T05:06:26.857Z,2.30
2022-11-19T05:08:53.052Z,4.00
2022-11-19T05:11:19.271Z,2.90
2022-11-19T05:13:45.458Z,2.90
2022-11-19T05:16:11.685Z,3.15
2022-11-19T05:18:37.887Z,2.92
2022-11-19T05:21:04.153Z,3.25
2022-11-19T05:23:30.339Z,2.88
2022-11-19T05:25:56.534Z,3.50
2022-11-19T05:28:37.627Z,3.70
2022-11-19T05:31:04.718Z,4.00
2022-11-19T05:33:34.002Z,3.63
2022-11-19T05:36:00.866Z,4.45
2022-11-19T05:38:27.048Z,4.18
2022-11-19T05:40:53.291Z,4.53
2022-11-19T05:43:19.493Z,4.53
2022-11-19T05:45:45.703Z,5.18
2022-11-19T05:48:11.921Z,5.88
2022-11-19T05:50:38.159Z,7.05
2022-11-19T05:53:05.165Z,5.53
2022-11-19T05:55:31.606Z,7.88
2022-11-19T05:57:57.945Z,8.18
2022-11-19T06:00:24.123Z,9.05
2022-11-19T06:02:50.542Z,8.68
2022-11-19T06:05:16.870Z,8.90
2022-11-19T06:07:43.129Z,10.23
2022-11-19T06:10:09.432Z,9.85
2022-11-19T06:12:40.126Z,9.95
2022-11-19T06:15:08.983Z,10.05
2022-11-19T06:17:35.194Z,9.27
2022-11-19T06:20:01.510Z,11.20
2022-11-19T06:22:27.738Z,11.70
2022-11-19T06:24:53.974Z,10.10
2022-11-19T06:27:20.216Z,10.85
2022-11-19T06:29:46.430Z,9.25
2022-11-19T06:32:12.639Z,11.95
2022-11-19T06:34:38.813Z,10.82
2022-11-19T06:37:05.087Z,13.25
2022-11-19T06:39:31.311Z,12.32
2022-11-19T06:42:17.545Z,10.90
2022-11-19T06:44:43.721Z,11.40
2022-11-19T06:47:10.279Z,12.43
2022-11-19T06:49:36.463Z,13.50
2022-11-19T06:52:02.670Z,15.10
2022-11-19T06:54:28.873Z,14.20
2022-11-19T06:56:55.080Z,15.75
2022-11-19T06:59:21.769Z,16.38
2022-11-19T07:01:48.201Z,18.35
2022-11-19T07:04:14.477Z,16.63
2022-11-19T07:06:40.700Z,18.92
2022-11-19T07:09:07.032Z,17.65
2022-11-19T07:11:33.382Z,18.65
2022-11-19T07:13:59.954Z,17.85
2022-11-19T07:16:27.552Z,18.05
2022-11-19T07:18:54.031Z,20.20
2022-11-19T07:21:20.303Z,20.40
2022-11-19T07:23:46.527Z,19.95
2022-11-19T07:26:13.902Z,21.88
2022-11-19T07:28:40.134Z,20.83
2022-11-19T07:31:07.126Z,22.55
2022-11-19T07:33:33.614Z,20.58
2022-11-19T07:35:59.933Z,21.50
2022-11-19T07:38:26.178Z,21.48
2022-11-19T07:40:55.594Z,21.50
2022-11-19T07:43:22.019Z,24.65
2022-11-19T07:45:48.496Z,22.30
2022-11-19T07:48:14.926Z,25.63
2022-11-19T07:50:41.364Z,23.52
2022-11-19T07:53:08.147Z,24.23
2022-11-19T07:55:34.481Z,22.88
2022-11-19T07:58:00.755Z,23.50
2022-11-19T08:00:27.027Z,27.80
2022-11-19T08:02:53.267Z,25.50
2022-11-19T08:05:19.464Z,25.80
2022-11-19T08:07:45.706Z,22.67
2022-11-19T08:10:12.039Z,21.42
2022-11-19T08:12:38.330Z,22.98
2022-11-19T08:15:05.060Z,21.65
2022-11-19T08:17:49.716Z,23.75
2022-11-19T08:20:19.260Z,22.90
2022-11-19T08:22:45.640Z,20.75
2022-11-19T08:25:11.907Z,23.38
2022-11-19T08:27:38.161Z,24.08
2022-11-19T08:30:04.649Z,24.80
2022-11-19T08:32:30.952Z,23.65
2022-11-19T08:34:57.223Z,22.50
2022-11-19T08:37:23.458Z,22.20
2022-11-19T08:39:49.677Z,23.33
2022-11-19T08:42:34.401Z,25.10
2022-11-19T08:45:00.916Z,36.08
2022-11-19T08:47:27.159Z,27.00
2022-11-19T08:49:53.396Z,22.20
2022-11-19T08:52:19.639Z,22.08
2022-11-19T08:54:45.831Z,22.25
2022-11-19T08:57:12.074Z,23.88
2022-11-19T08:59:38.265Z,25.42
2022-11-19T09:02:04.463Z,20.45
2022-11-19T09:04:30.702Z,22.02
2022-11-19T09:06:57.416Z,22.45
2022-11-19T09:09:23.740Z,19.40
2022-11-19T09:11:49.955Z,20.23
2022-11-19T09:14:16.197Z,21.77
2022-11-19T09:16:42.518Z,22.55
2022-11-19T09:19:08.749Z,20.33
2022-11-19T09:21:34.944Z,18.92
2022-11-19T09:24:01.148Z,20.27
2022-11-19T09:26:27.372Z,21.30
2022-11-19T09:28:53.615Z,19.50
2022-11-19T09:31:20.234Z,18.70
2022-11-19T09:33:47.932Z,20.13
2022-11-19T09:36:14.392Z,20.58
2022-11-19T09:38:40.879Z,20.75
2022-11-19T09:41:39.766Z,18.90
2022-11-19T09:44:18.522Z,21.90
2022-11-19T09:46:52.419Z,19.58
2022-11-19T09:49:24.570Z,21.17
2022-11-19T09:51:54.234Z,19.52
2022-11-19T09:54:21.417Z,18.73
2022-11-19T09:56:49.989Z,19.48
2022-11-19T09:59:25.255Z,18.08
2022-11-19T10:01:52.365Z,15.90
2022-11-19T10:04:21.522Z,19.77
2022-11-19T10:06:53.727Z,18.40
2022-11-19T10:09:38.031Z,17.55
2022-11-19T10:12:23.137Z,16.52
2022-11-19T10:15:08.836Z,17.92
2022-11-19T10:17:40.887Z,16.60
2022-11-19T10:20:25.640Z,14.82
2022-11-19T10:22:57.688Z,17.35
2022-11-19T10:25:27.781Z,17.27
2022-11-19T10:28:00.172Z,17.45
2022-11-19T10:30:28.800Z,19.25
2022-11-19T10:32:59.875Z,20.02
2022-11-19T10:35:35.816Z,17.10
2022-11-19T10:38:02.910Z,16.23
2022-11-19T10:40:39.060Z,15.48
2022-11-19T10:43:17.136Z,18.77
2022-11-19T10:48:21.291Z,17.40
2022-11-19T10:50:47.795Z,17.67
2022-11-19T10:53:14.158Z,16.02
2022-11-19T10:55:51.367Z,17.02
2022-11-19T10:58:29.324Z,20.20
2022-11-19T11:01:00.379Z,17.50
2022-11-19T11:03:38.325Z,16.55
2022-11-19T11:06:06.594Z,17.15
2022-11-19T11:08:33.546Z,16.65
2022-11-19T11:10:59.843Z,16.13
2022-11-19T11:13:53.681Z,24.55
2022-11-19T11:16:21.416Z,17.42
2022-11-19T11:18:48.647Z,16.73
2022-11-19T11:21:25.810Z,17.90
2022-11-19T11:23:53.447Z,15.68
2022-11-19T11:26:22.124Z,17.17
2022-11-19T11:28:59.969Z,17.90
2022-11-19T11:31:30.711Z,19.77
2022-11-19T11:33:57.454Z,18.05
2022-11-19T11:36:28.024Z,16.67
2022-11-19T11:38:58.027Z,16.00
2022-11-19T11:44:28.611Z,17.25
2022-11-19T11:46:59.446Z,20.48
2022-11-19T11:49:28.145Z,39.08
2022-11-19T11:52:07.019Z,17.95
2022-11-19T11:54:33.389Z,16.80
2022-11-19T11:57:19.614Z,17.77
2022-11-19T11:59:45.872Z,17.83
2022-11-19T12:02:38.280Z,17.83
2022-11-19T12:05:06.932Z,17.42
2022-11-19T12:07:33.257Z,19.05
2022-11-19T12:10:10.035Z,16.08
2022-11-19T12:12:38.982Z,15.38
2022-11-19T12:15:18.500Z,16.67
2022-11-19T12:17:47.786Z,16.52
2022-11-19T12:20:35.735Z,16.13
2022-11-19T12:23:10.334Z,15.27
2022-11-19T12:25:39.883Z,15.18
2022-11-19T12:28:24.788Z,15.13
2022-11-19T12:30:57.686Z,17.23
2022-11-19T12:33:42.805Z,16.63
2022-11-19T12:36:17.496Z,15.10
2022-11-19T12:39:02.244Z,17.80
2022-11-19T12:41:38.411Z,17.80
2022-11-19T12:44:37.318Z,14.38
2022-11-19T12:47:15.481Z,14.85
2022-11-19T12:50:11.166Z,15.68
2022-11-19T12:52:56.196Z,15.27
2022-11-19T12:55:27.114Z,16.10
2022-11-19T12:57:53.405Z,16.83
2022-11-19T13:00:25.869Z,16.60
2022-11-19T13:02:52.207Z,14.95
2022-11-19T13:05:20.272Z,15.85
2022-11-19T13:07:51.015Z,16.45
2022-11-19T13:10:21.189Z,18.15
2022-11-19T13:12:51.728Z,17.27
2022-11-19T13:15:17.980Z,18.33
2022-11-19T13:17:46.999Z,17.67
2022-11-19T13:20:36.866Z,21.95
2022-11-19T13:23:04.497Z,19.65
2022-11-19T13:25:40.008Z,17.52
2022-11-19T13:28:13.298Z,16.98
2022-11-19T13:30:40.453Z,19.38
2022-11-19T13:33:11.370Z,16.92
2022-11-19T13:35:43.233Z,19.75
2022-11-19T13:38:16.096Z,18.77
2022-11-19T13:40:47.145Z,19.17
2022-11-19T13:43:34.344Z,19.20
2022-11-19T13:46:04.567Z,17.63
2022-11-19T13:48:33.255Z,17.65
2022-11-19T13:51:00.930Z,17.67
2022-11-19T13:53:35.417Z,18.13
2022-11-19T13:56:02.034Z,19.17
2022-11-19T13:58:43.892Z,16.77
2022-11-19T14:01:33.183Z,17.60
2022-11-19T14:04:22.970Z,20.13
2022-11-19T14:06:49.310Z,22.33
2022-11-19T14:09:18.696Z,16.98
2022-11-19T14:12:03.287Z,17.15
2022-11-19T14:14:54.170Z,17.63
2022-11-19T14:17:42.294Z,17.15
2022-11-19T14:20:49.142Z,15.55
2022-11-19T14:23:53.278Z,17.15
2022-11-19T14:26:38.121Z,21.08
2022-11-19T14:29:04.385Z,15.48
2022-11-19T14:31:30.618Z,16.27
2022-11-19T14:33:58.391Z,18.02
2022-11-19T14:36:30.606Z,20.00
2022-11-19T14:38:58.482Z,15.63
2022-11-19T14:41:33.414Z,18.30
2022-11-19T14:44:19.872Z,18.60
2022-11-19T14:46:49.351Z,18.55
2022-11-19T14:49:24.640Z,16.80
2022-11-19T14:51:52.244Z,20.13
2022-11-19T14:54:31.102Z,19.35
2022-11-19T14:57:03.662Z,17.73
2022-11-19T14:59:32.602Z,17.80
2022-11-19T15:02:01.426Z,22.35
2022-11-19T15:04:34.280Z,22.17
2022-11-19T15:07:00.956Z,18.85
2022-11-19T15:09:45.695Z,17.08
2022-11-19T15:12:11.906Z,17.60
2022-11-19T15:14:59.677Z,19.00
2022-11-19T15:17:26.648Z,17.00
2022-11-19T15:20:11.223Z,19.48
2022-11-19T15:23:07.103Z,18.27
2022-11-19T15:25:36.394Z,20.33
2022-11-19T15:28:05.815Z,18.98
2022-11-19T15:30:47.476Z,17.13
2022-11-19T15:33:37.744Z,18.25
2022-11-19T15:36:13.454Z,20.90
2022-11-19T15:38:42.446Z,21.25
2022-11-19T15:41:12.387Z,18.27
2022-11-19T15:43:43.543Z,17.25
2022-11-19T15:46:27.342Z,19.60
2022-11-19T15:49:11.978Z,19.67
2022-11-19T15:51:58.523Z,21.35
2022-11-19T15:54:29.641Z,21.17
2022-11-19T15:56:58.142Z,20.92
2022-11-19T15:59:25.448Z,20.25
2022-11-19T16:02:02.337Z,18.02
2022-11-19T16:04:31.133Z,18.50
2022-11-19T16:06:58.044Z,21.95
2022-11-19T16:09:24.922Z,21.55
2022-11-19T16:12:10.533Z,22.38
2022-11-19T16:14:55.195Z,19.48
2022-11-19T16:17:32.208Z,21.08
2022-11-19T16:20:07.322Z,19.05
2022-11-19T16:22:35.465Z,21.40
2022-11-19T16:25:05.656Z,23.00
2022-11-19T16:27:32.056Z,21.75
2022-11-19T16:29:58.674Z,20.17
2022-11-19T16:32:25.532Z,21.13
2022-11-19T16:34:52.031Z,23.98
2022-11-19T16:37:21.916Z,19.60
2022-11-19T16:39:52.213Z,21.45
2022-11-19T16:42:22.904Z,19.23
2022-11-19T16:44:50.159Z,21.60
2022-11-19T16:47:20.138Z,20.40
2022-11-19T16:49:46.334Z,21.80
2022-11-19T16:52:32.496Z,20.13
2022-11-19T16:54:59.317Z,20.00
2022-11-19T16:57:26.852Z,21.35
2022-11-19T16:59:54.603Z,22.02
2022-11-19T17:02:22.549Z,23.55
2022-11-19T17:04:50.285Z,23.05
2022-11-19T17:07:24.053Z,24.00
2022-11-19T17:10:06.701Z,25.23
2022-11-19T17:12:33.881Z,20.42
2022-11-19T17:15:01.271Z,22.35
2022-11-19T17:17:40.737Z,20.40
2022-11-19T17:20:26.632Z,20.00
2022-11-19T17:22:53.316Z,19.50
2022-11-19T17:25:19.687Z,21.98
2022-11-19T17:27:50.060Z,21.65
2022-11-19T17:30:16.292Z,24.02
2022-11-19T17:32:45.288Z,23.00
2022-11-19T17:35:30.643Z,22.10
2022-11-19T17:37:58.745Z,21.90
2022-11-19T17:40:24.967Z,24.10
2022-11-19T17:43:10.016Z,22.63
2022-11-19T17:45:36.223Z,21.38
2022-11-19T17:48:02.888Z,25.60
2022-11-19T17:50:29.097Z,21.65
2022-11-19T17:52:55.328Z,25.23
2022-11-19T17:55:22.601Z,23.27
2022-11-19T17:57:48.802Z,22.63
2022-11-19T18:00:15.360Z,25.02
2022-11-19T18:02:41.639Z,25.60
2022-11-19T18:05:13.290Z,24.85
2022-11-19T18:07:39.624Z,26.50
2022-11-19T18:10:06.187Z,23.75
2022-11-19T18:12:32.401Z,21.83
2022-11-19T18:15:01.993Z,23.05
2022-11-19T18:17:28.542Z,21.85
2022-11-19T18:19:54.950Z,21.88
2022-11-19T18:22:21.272Z,24.52
2022-11-19T18:24:48.705Z,23.50
2022-11-19T18:27:15.397Z,23.17
2022-11-19T18:29:42.000Z,24.58
2022-11-19T18:32:10.613Z,20.88
2022-11-19T18:34:36.813Z,22.50
2022-11-19T18:37:03.178Z,24.13
2022-11-19T18:39:29.563Z,20.75
2022-11-19T18:41:55.912Z,21.08
2022-11-19T18:44:34.152Z,19.58
2022-11-19T18:47:05.009Z,23.35
2022-11-19T18:49:33.363Z,21.65
2022-11-19T18:51:59.776Z,23.23
2022-11-19T18:54:26.077Z,23.48
2022-11-19T18:56:53.473Z,20.85
2022-11-19T18:59:19.985Z,21.17
2022-11-19T19:01:46.504Z,20.88
2022-11-19T19:04:14.463Z,21.35
2022-11-19T19:06:41.552Z,20.20
2022-11-19T19:09:08.156Z,20.55
2022-11-19T19:11:52.971Z,22.45
2022-11-19T19:14:19.359Z,20.38
2022-11-19T19:16:45.562Z,19.85
2022-11-19T19:19:14.034Z,21.15
2022-11-19T19:21:40.245Z,19.70
2022-11-19T19:24:06.698Z,18.70
2022-11-19T19:26:33.005Z,19.70
2022-11-19T19:28:59.291Z,18.88
2022-11-19T19:31:25.743Z,20.80
2022-11-19T19:33:52.413Z,19.08
2022-11-19T19:36:19.475Z,19.88
2022-11-19T19:38:45.847Z,21.23
2022-11-19T19:41:19.513Z,22.08
2022-11-19T19:43:47.524Z,20.45
2022-11-19T19:46:15.765Z,23.85
2022-11-19T19:48:42.491Z,20.83
2022-11-19T19:51:08.717Z,21.67
2022-11-19T19:53:35.039Z,21.92
2022-11-19T19:56:05.069Z,24.25
2022-11-19T19:58:31.483Z,21.50
2022-11-19T20:01:27.084Z,20.77
2022-11-19T20:03:54.818Z,22.30
2022-11-19T20:06:22.431Z,23.90
2022-11-19T20:08:48.658Z,21.23
2022-11-19T20:11:16.128Z,24.40
2022-11-19T20:13:43.087Z,19.23
2022-11-19T20:16:16.179Z,21.33
2022-11-19T20:18:44.079Z,22.30
2022-11-19T20:21:14.668Z,22.95
2022-11-19T20:23:41.547Z,22.43
2022-11-19T20:26:10.537Z,24.20
2022-11-19T20:28:36.749Z,22.33
2022-11-19T20:31:06.321Z,22.90
2022-11-19T20:33:32.906Z,25.00
2022-11-19T20:35:59.159Z,23.70
2022-11-19T20:38:25.536Z,26.27
2022-11-19T20:40:54.828Z,24.23
2022-11-19T20:43:45.067Z,22.48
2022-11-19T20:46:14.311Z,26.13
2022-11-19T20:48:40.778Z,23.67
2022-11-19T20:51:08.001Z,26.33
2022-11-19T20:53:34.401Z,22.23
2022-11-19T20:56:05.255Z,26.58
2022-11-19T20:58:32.112Z,21.70
2022-11-19T21:01:06.066Z,24.23
2022-11-19T21:03:33.853Z,25.58
2022-11-19T21:06:00.960Z,24.17
2022-11-19T21:08:27.736Z,23.85
2022-11-19T21:10:58.410Z,25.20
2022-11-19T21:13:24.623Z,22.75
2022-11-19T21:15:50.834Z,23.15
2022-11-19T21:18:17.038Z,24.13
2022-11-19T21:20:43.277Z,26.85
2022-11-19T21:23:09.491Z,25.90
2022-11-19T21:25:36.914Z,26.13
2022-11-19T21:28:03.693Z,22.30
2022-11-19T21:30:29.905Z,25.35
2022-11-19T21:32:56.112Z,24.73
2022-11-19T21:35:22.340Z,24.25
2022-11-19T21:37:48.565Z,27.08
2022-11-19T21:40:14.901Z,30.00
2022-11-19T21:42:41.085Z,23.10
2022-11-19T21:45:07.615Z,27.70
2022-11-19T21:47:33.846Z,30.98
2022-11-19T21:50:00.688Z,26.65
2022-11-19T21:52:27.452Z,28.13
2022-11-19T21:54:53.699Z,25.33
2022-11-19T21:57:19.983Z,28.67
2022-11-19T21:59:46.283Z,27.38
2022-11-19T22:02:12.588Z,29.05
2022-11-19T22:04:39.000Z,24.75
2022-11-19T22:07:05.737Z,27.85
2022-11-19T22:09:31.967Z,26.90
2022-11-19T22:11:58.170Z,26.65
2022-11-19T22:14:24.561Z,28.20
2022-11-19T22:16:51.645Z,27.33
2022-11-19T22:19:17.963Z,27.88
2022-11-19T22:21:44.276Z,27.77
2022-11-19T22:24:11.978Z,27.95
2022-11-19T22:26:38.203Z,27.60
2022-11-19T22:29:04.431Z,25.70
2022-11-19T22:31:30.653Z,25.35
2022-11-19T22:33:57.064Z,27.45
2022-11-19T22:36:23.438Z,27.95
2022-11-19T22:38:50.311Z,28.48
2022-11-19T22:41:17.956Z,29.23
2022-11-19T22:43:44.196Z,26.70
2022-11-19T22:46:11.741Z,27.05
2022-11-19T22:48:38.114Z,29.48
2022-11-19T22:51:05.512Z,26.67
2022-11-19T22:53:33.528Z,25.80
2022-11-19T22:56:07.590Z,26.20
2022-11-19T22:58:34.166Z,27.88
2022-11-19T23:01:00.445Z,26.63
2022-11-19T23:03:26.875Z,41.63
2022-11-19T23:05:53.694Z,29.90
2022-11-19T23:08:20.004Z,27.35
2022-11-19T23:10:46.690Z,26.30
2022-11-19T23:13:32.512Z,26.38
2022-11-19T23:15:59.443Z,30.42
2022-11-19T23:18:25.830Z,26.83
2022-11-19T23:20:58.923Z,29.15
2022-11-19T23:23:25.216Z,25.77
2022-11-19T23:25:55.447Z,29.77
2022-11-19T23:28:21.694Z,30.30
2022-11-19T23:30:47.963Z,25.50
2022-11-19T23:33:14.162Z,27.92
2022-11-19T23:35:40.396Z,24.77
2022-11-19T23:38:06.598Z,25.98
2022-11-19T23:40:32.799Z,29.40
2022-11-19T23:42:59.008Z,28.10
2022-11-19T23:45:25.230Z,26.70
2022-11-19T23:47:51.419Z,27.38
2022-11-19T23:50:17.640Z,27.95
2022-11-19T23:52:43.890Z,25.40
2022-11-19T23:55:10.145Z,27.35
2022-11-19T23:57:36.357Z,27.27
